Time;durP1;ratioP1;P1;durP2;ratioP2;P2;SDS_P1;SDS_P2;PMS_P1;PMS_P2;Temp;Humidity;BMP_temperature;BMP_pressure;BME280_temperature;BME280_humidity;BME280_pressure;Samples;Min_cycle;Max_cycle;Signal;HPM_P1;HPM_P2
2022/11/07 00:00:06;;;;;;;0.45;0.30;;;19.90;85.60;;;;;;6273381;22;45381;-70
2022/11/07 00:02:33;;;;;;;1.27;0.43;;;19.90;85.70;;;;;;6271230;22;45283;-70
2022/11/07 00:05:01;;;;;;;0.88;0.30;;;19.90;85.70;;;;;;6272936;22;47167;-70
2022/11/07 00:07:28;;;;;;;0.47;0.40;;;19.90;85.70;;;;;;6273474;22;45292;-70
2022/11/07 00:09:55;;;;;;;0.45;0.40;;;19.90;85.60;;;;;;6273706;22;45332;-69
2022/11/07 00:12:21;;;;;;;1.08;0.45;;;19.90;85.70;;;;;;6272634;22;45210;-69
2022/11/07 00:14:50;;;;;;;0.85;0.38;;;19.90;85.40;;;;;;6273417;22;47406;-69
2022/11/07 00:17:17;;;;;;;0.60;0.40;;;19.90;85.60;;;;;;6272901;22;45222;-70
2022/11/07 00:19:44;;;;;;;0.90;0.40;;;19.90;85.30;;;;;;6273560;22;45216;-70
2022/11/07 00:22:11;;;;;;;0.68;0.45;;;19.90;85.00;;;;;;6272498;22;45344;-70
2022/11/07 00:24:38;;;;;;;1.50;0.50;;;19.90;85.00;;;;;;6273327;22;48255;-70
2022/11/07 00:27:04;;;;;;;0.75;0.30;;;19.90;84.90;;;;;;6275158;22;45335;-70
2022/11/07 00:29:31;;;;;;;0.30;0.30;;;19.90;85.00;;;;;;6275356;22;45212;-69
2022/11/07 00:31:59;;;;;;;1.10;0.50;;;19.90;85.00;;;;;;6275080;22;45176;-69
2022/11/07 00:34:26;;;;;;;0.98;0.57;;;19.90;84.80;;;;;;6275066;22;46309;-69
2022/11/07 00:36:53;;;;;;;0.30;0.30;;;19.90;84.50;;;;;;6275184;22;45235;-70
2022/11/07 00:39:19;;;;;;;0.65;0.20;;;19.90;84.70;;;;;;6274067;22;45411;-69
2022/11/07 00:41:47;;;;;;;0.95;0.30;;;19.90;84.40;;;;;;6274222;22;45320;-69
2022/11/07 00:44:14;;;;;;;1.42;0.30;;;19.90;84.40;;;;;;6273259;22;46565;-70
2022/11/07 00:46:41;;;;;;;0.32;0.20;;;19.90;84.70;;;;;;6273449;22;45274;-69
2022/11/07 00:49:09;;;;;;;0.60;0.40;;;19.80;84.80;;;;;;6275103;22;45248;-69
2022/11/07 00:51:36;;;;;;;0.50;0.38;;;19.80;85.00;;;;;;6273259;22;45296;-69
2022/11/07 00:54:03;;;;;;;1.15;0.50;;;19.90;85.00;;;;;;6275048;22;46491;-69
2022/11/07 00:56:30;;;;;;;0.82;0.50;;;19.90;85.30;;;;;;6273486;22;45259;-70
2022/11/07 00:59:38;;;;;;;0.50;0.30;;;19.90;85.10;;;;;;6275347;22;45216;-69
2022/11/07 01:02:04;;;;;;;1.02;0.32;;;19.90;85.20;;;;;;6274425;22;45327;-69
2022/11/07 01:07:16;;;;;;;0.30;0.30;;;19.90;84.80;;;;;;6274936;22;45302;-69
2022/11/07 01:09:43;;;;;;;0.75;0.50;;;19.90;85.10;;;;;;6273811;22;45210;-70
2022/11/07 01:12:10;;;;;;;1.05;0.60;;;19.90;85.00;;;;;;6276028;22;45538;-69
2022/11/07 01:14:37;;;;;;;1.00;0.50;;;19.90;85.00;;;;;;6273804;22;45346;-70
2022/11/07 01:17:03;;;;;;;0.90;0.40;;;19.90;84.70;;;;;;6275153;22;45203;-69
2022/11/07 01:19:31;;;;;;;0.40;0.40;;;19.90;84.40;;;;;;6276206;22;45231;-70
2022/11/07 01:21:58;;;;;;;0.52;0.30;;;19.90;84.40;;;;;;6275538;22;45230;-69
2022/11/07 01:24:25;;;;;;;0.90;0.43;;;19.90;84.50;;;;;;6276192;22;45350;-70
2022/11/07 01:26:52;;;;;;;1.20;0.47;;;19.90;84.30;;;;;;6276253;22;45151;-70
2022/11/07 01:29:19;;;;;;;1.45;0.30;;;19.90;84.20;;;;;;6275299;22;45264;-70
2022/11/07 01:31:47;;;;;;;0.73;0.30;;;19.90;84.30;;;;;;6273895;22;45472;-69
2022/11/07 01:34:16;;;;;;;0.77;0.43;;;19.90;84.20;;;;;;6276227;22;47249;-70
2022/11/07 01:36:44;;;;;;;0.98;0.40;;;19.90;84.20;;;;;;6274900;22;46118;-69
2022/11/07 01:39:11;;;;;;;0.50;0.40;;;19.90;84.10;;;;;;6275896;22;45306;-69
2022/11/07 01:41:38;;;;;;;0.57;0.50;;;19.90;85.10;;;;;;6275525;22;45251;-70
2022/11/07 01:44:38;;;;;;;1.38;0.50;;;19.90;83.90;;;;;;6276010;22;46557;-69
2022/11/07 01:47:06;;;;;;;0.95;0.32;;;19.90;84.40;;;;;;6276208;22;45244;-69
2022/11/07 01:49:37;;;;;;;0.40;0.25;;;19.90;84.60;;;;;;6276392;22;45225;-69
2022/11/07 01:52:11;;;;;;;0.65;0.40;;;19.90;84.70;;;;;;6275677;22;45370;-70
2022/11/07 01:54:44;;;;;;;1.13;0.50;;;19.90;84.60;;;;;;6275717;22;45207;-69
2022/11/07 01:57:17;;;;;;;0.70;0.28;;;19.90;84.50;;;;;;6276173;22;46181;-70
2022/11/07 01:59:43;;;;;;;0.88;0.32;;;19.90;84.60;;;;;;6276767;22;45093;-69
2022/11/07 02:02:10;;;;;;;0.82;0.40;;;19.90;84.60;;;;;;6272883;22;45293;-69
2022/11/07 02:04:37;;;;;;;0.93;0.60;;;19.90;84.60;;;;;;6275775;22;45321;-70
2022/11/07 02:07:11;;;;;;;1.02;0.45;;;19.90;84.60;;;;;;6275319;22;45331;-69
2022/11/07 02:09:38;;;;;;;1.75;0.40;;;19.90;84.60;;;;;;6276924;22;45342;-69
2022/11/07 02:12:05;;;;;;;1.02;0.40;;;19.90;84.70;;;;;;6275577;22;45264;-70
2022/11/07 02:14:32;;;;;;;0.40;0.40;;;19.90;84.30;;;;;;6275858;22;47069;-69
2022/11/07 02:17:00;;;;;;;1.40;0.30;;;19.90;84.20;;;;;;6275501;22;45699;-69
2022/11/07 02:19:35;;;;;;;1.23;0.50;;;19.90;85.20;;;;;;6275601;22;45232;-69
2022/11/07 02:22:11;;;;;;;1.25;0.50;;;19.90;84.10;;;;;;6275600;22;45176;-69
2022/11/07 02:24:40;;;;;;;0.32;0.30;;;19.80;83.80;;;;;;6275356;22;47749;-69
2022/11/07 02:27:11;;;;;;;1.08;0.45;;;19.90;83.90;;;;;;6275219;22;45149;-70
2022/11/07 02:29:39;;;;;;;0.38;0.32;;;19.90;83.80;;;;;;6276123;22;45519;-69
2022/11/07 02:32:09;;;;;;;1.15;0.32;;;19.90;83.70;;;;;;6275849;22;45304;-70
2022/11/07 02:34:36;;;;;;;1.02;0.50;;;19.90;83.50;;;;;;6275819;22;46546;-70
2022/11/07 02:37:06;;;;;;;1.50;0.50;;;19.90;83.70;;;;;;6276138;22;45267;-70
2022/11/07 02:39:33;;;;;;;1.05;0.47;;;19.90;83.50;;;;;;6276074;22;45256;-69
2022/11/07 02:42:02;;;;;;;0.88;0.40;;;19.90;83.70;;;;;;6275209;22;45105;-70
2022/11/07 02:44:30;;;;;;;0.70;0.30;;;19.90;83.90;;;;;;6275964;22;45228;-70
2022/11/07 02:46:57;;;;;;;1.60;0.40;;;19.90;84.20;;;;;;6275481;22;46022;-69
2022/11/07 02:49:24;;;;;;;1.33;0.50;;;19.90;84.20;;;;;;6276345;22;45133;-70
2022/11/07 02:51:51;;;;;;;0.75;0.32;;;19.90;84.40;;;;;;6275432;22;45165;-69
2022/11/07 02:54:18;;;;;;;0.68;0.47;;;19.90;84.30;;;;;;6275642;22;48440;-70
2022/11/07 02:56:45;;;;;;;0.57;0.47;;;19.90;84.30;;;;;;6276009;22;45219;-69
2022/11/07 02:59:13;;;;;;;1.75;0.40;;;19.90;84.20;;;;;;6276057;22;45247;-69
2022/11/07 03:01:40;;;;;;;0.63;0.30;;;19.90;84.30;;;;;;6275988;22;45182;-69
2022/11/07 03:04:06;;;;;;;1.08;0.50;;;19.90;84.20;;;;;;6274674;22;47030;-69
2022/11/07 03:07:17;;;;;;;0.52;0.30;;;19.90;84.30;;;;;;6276269;22;45269;-69
2022/11/07 03:09:43;;;;;;;1.30;0.50;;;19.90;84.00;;;;;;6275994;22;45236;-69
2022/11/07 03:12:11;;;;;;;1.85;0.35;;;19.90;83.90;;;;;;6275254;22;45486;-69
2022/11/07 03:14:39;;;;;;;0.50;0.30;;;19.90;83.80;;;;;;6275536;22;48157;-70
2022/11/07 03:17:05;;;;;;;0.30;0.30;;;19.90;83.70;;;;;;6275677;22;45398;-70
2022/11/07 03:19:32;;;;;;;0.40;0.40;;;19.90;83.60;;;;;;6274312;22;45250;-70
2022/11/07 03:21:59;;;;;;;1.33;0.55;;;19.80;83.30;;;;;;6274626;22;45192;-69
2022/11/07 03:24:26;;;;;;;0.93;0.30;;;19.90;83.40;;;;;;6273878;22;45264;-69
2022/11/07 03:26:53;;;;;;;0.60;0.40;;;19.80;83.40;;;;;;6274967;22;45089;-69
2022/11/07 03:29:20;;;;;;;0.70;0.30;;;19.90;83.30;;;;;;6275771;22;45314;-69
2022/11/07 03:31:48;;;;;;;2.20;0.63;;;19.80;83.30;;;;;;6274361;22;45339;-69
2022/11/07 03:34:14;;;;;;;0.52;0.30;;;19.80;83.10;;;;;;6275832;22;47081;-70
2022/11/07 03:36:41;;;;;;;1.35;0.50;;;19.80;83.10;;;;;;6275900;22;45143;-69
2022/11/07 03:39:08;;;;;;;0.73;0.35;;;19.80;82.90;;;;;;6274449;22;45148;-70
2022/11/07 03:41:35;;;;;;;0.98;0.57;;;19.80;83.40;;;;;;6274793;22;45194;-70
2022/11/07 03:44:02;;;;;;;1.33;0.40;;;19.90;83.60;;;;;;6275388;22;46479;-69
2022/11/07 03:46:28;;;;;;;2.33;0.45;;;19.90;83.60;;;;;;6275861;22;45233;-69
2022/11/07 03:48:56;;;;;;;0.50;0.25;;;19.90;83.50;;;;;;6275007;22;45322;-70
2022/11/07 03:51:23;;;;;;;2.33;0.60;;;19.90;83.80;;;;;;6273834;22;45293;-71
2022/11/07 03:53:50;;;;;;;0.73;0.35;;;19.90;83.70;;;;;;6273505;22;46395;-69
2022/11/07 03:56:17;;;;;;;1.17;0.60;;;19.90;83.60;;;;;;6272992;22;45267;-69
2022/11/07 03:58:44;;;;;;;0.60;0.50;;;19.90;83.60;;;;;;6274218;22;45458;-70
2022/11/07 04:01:24;;;;;;;2.28;0.40;;;19.90;83.60;;;;;;6274852;22;45352;-70
2022/11/07 04:03:51;;;;;;;0.70;0.40;;;19.90;83.80;;;;;;6273741;22;46627;-69
2022/11/07 04:06:19;;;;;;;1.85;0.68;;;19.90;83.60;;;;;;6272205;22;45462;-69
2022/11/07 04:08:46;;;;;;;2.17;0.40;;;19.90;83.50;;;;;;6275164;22;45208;-69
2022/11/07 04:17:17;;;;;;;1.83;0.55;;;19.90;83.50;;;;;;6275496;22;45337;-69
2022/11/07 04:19:29;;;;;;;0.40;0.30;;;19.90;83.10;;;;;;6232054;22;45300;-70
2022/11/07 04:21:57;;;;;;;1.60;0.50;;;19.90;83.00;;;;;;6274638;22;45232;-69
2022/11/07 04:24:24;;;;;;;1.42;0.38;;;19.90;82.90;;;;;;6274590;22;46384;-70
2022/11/07 04:29:49;;;;;;;0.85;0.40;;;19.90;82.70;;;;;;6180274;23;45275;-69
2022/11/07 04:32:16;;;;;;;0.50;0.32;;;19.90;82.70;;;;;;6180779;23;45276;-69
2022/11/07 04:34:43;;;;;;;1.95;0.70;;;19.90;82.60;;;;;;6217961;22;47346;-70
2022/11/07 04:37:11;;;;;;;1.95;0.47;;;19.90;82.60;;;;;;6275087;22;45331;-70
2022/11/07 04:39:38;;;;;;;0.80;0.40;;;19.90;82.90;;;;;;6274527;22;45233;-70
2022/11/07 04:42:04;;;;;;;0.50;0.25;;;19.90;83.10;;;;;;6274615;22;45312;-70
2022/11/07 04:44:31;;;;;;;0.65;0.50;;;19.90;83.10;;;;;;6274455;22;46592;-69
2022/11/07 04:46:58;;;;;;;1.20;0.30;;;19.90;82.90;;;;;;6273930;22;45287;-69
2022/11/07 04:49:25;;;;;;;1.55;0.60;;;19.90;82.90;;;;;;6276588;22;45349;-70
2022/11/07 04:51:55;;;;;;;1.55;0.77;;;19.90;82.90;;;;;;6275375;22;45358;-69
2022/11/07 04:54:23;;;;;;;2.33;0.90;;;19.90;82.80;;;;;;6275980;22;45365;-70
2022/11/07 04:56:50;;;;;;;2.08;0.40;;;19.90;83.10;;;;;;6276683;22;45740;-69
2022/11/07 04:59:17;;;;;;;1.15;0.43;;;19.90;82.80;;;;;;6275078;22;45279;-70
2022/11/07 05:01:43;;;;;;;2.72;0.50;;;19.90;83.00;;;;;;6275385;22;45409;-69
2022/11/07 05:04:10;;;;;;;1.90;0.73;;;19.90;82.90;;;;;;6274706;22;47205;-69
2022/11/07 05:06:38;;;;;;;1.40;0.60;;;19.90;82.80;;;;;;6275299;22;45708;-69
2022/11/07 05:09:04;;;;;;;0.85;0.30;;;19.90;82.80;;;;;;6276162;22;45553;-69
2022/11/07 05:11:32;;;;;;;0.45;0.30;;;19.90;82.60;;;;;;6276286;22;45140;-69
2022/11/07 05:14:01;;;;;;;1.00;0.57;;;19.90;82.30;;;;;;6275012;22;45204;-69
2022/11/07 05:16:30;;;;;;;2.72;0.50;;;19.90;82.40;;;;;;6275249;22;45295;-69
2022/11/07 05:18:57;;;;;;;1.90;0.50;;;19.90;82.30;;;;;;6276081;22;45239;-69
2022/11/07 05:21:23;;;;;;;0.82;0.40;;;19.90;82.20;;;;;;6275777;22;45505;-69
2022/11/07 05:23:49;;;;;;;1.02;0.40;;;19.80;82.20;;;;;;6274685;22;47436;-69
2022/11/07 05:26:16;;;;;;;0.85;0.40;;;19.80;82.10;;;;;;6276126;22;45273;-70
2022/11/07 05:28:45;;;;;;;0.85;0.35;;;19.80;81.80;;;;;;6276377;22;45207;-70
2022/11/07 05:31:15;;;;;;;0.45;0.30;;;19.80;81.70;;;;;;6276456;22;45464;-71
2022/11/07 05:33:56;;;;;;;3.00;0.60;;;19.80;81.80;;;;;;6273779;22;47127;-70
2022/11/07 05:36:24;;;;;;;1.02;0.40;;;19.80;82.00;;;;;;6276482;22;45149;-69
2022/11/07 05:38:52;;;;;;;1.67;0.60;;;19.80;83.20;;;;;;6275521;22;45441;-70
2022/11/07 05:41:21;;;;;;;2.17;0.50;;;19.90;82.40;;;;;;6276579;22;45169;-69
2022/11/07 05:43:49;;;;;;;1.80;0.60;;;19.90;82.40;;;;;;6275321;22;45213;-69
2022/11/07 05:46:16;;;;;;;0.47;0.20;;;19.80;82.40;;;;;;6275220;22;45330;-69
2022/11/07 05:48:43;;;;;;;1.90;0.57;;;19.90;82.60;;;;;;6275922;22;45412;-69
2022/11/07 05:51:10;;;;;;;2.38;0.65;;;19.90;82.50;;;;;;6275743;22;45152;-69
2022/11/07 05:53:37;;;;;;;2.45;0.60;;;19.90;82.50;;;;;;6274417;22;46666;-70
2022/11/07 05:56:03;;;;;;;1.45;0.43;;;19.90;82.60;;;;;;6273894;22;45287;-70
2022/11/07 05:58:30;;;;;;;1.23;0.50;;;19.90;82.40;;;;;;6274703;22;45530;-70
2022/11/07 06:01:02;;;;;;;1.00;0.47;;;19.90;83.40;;;;;;6274488;22;45513;-70
2022/11/07 06:03:29;;;;;;;0.80;0.57;;;19.90;82.40;;;;;;6272126;22;47129;-69
2022/11/07 06:05:56;;;;;;;0.95;0.43;;;19.90;82.40;;;;;;6275776;22;45192;-69
2022/11/07 06:08:25;;;;;;;2.03;0.45;;;19.90;82.20;;;;;;6274846;22;45370;-69
2022/11/07 06:10:51;;;;;;;2.00;0.60;;;19.90;82.10;;;;;;6276167;22;45372;-69
2022/11/07 06:13:27;;;;;;;0.80;0.45;;;19.90;82.10;;;;;;6275363;22;45347;-69
2022/11/07 06:15:54;;;;;;;0.77;0.40;;;19.90;82.00;;;;;;6275755;22;45339;-69
2022/11/07 06:18:22;;;;;;;1.85;0.43;;;19.80;82.00;;;;;;6274352;22;45218;-69
2022/11/07 06:20:49;;;;;;;2.33;0.60;;;19.80;81.90;;;;;;6273003;22;45383;-69
2022/11/07 06:23:16;;;;;;;1.77;0.28;;;19.80;81.90;;;;;;6270449;22;46440;-69
2022/11/07 06:25:43;;;;;;;1.83;0.60;;;19.80;82.00;;;;;;6272606;22;45314;-70
2022/11/07 06:28:12;;;;;;;2.60;0.80;;;19.80;81.90;;;;;;6273017;22;45231;-69
2022/11/07 06:30:38;;;;;;;2.58;0.60;;;19.80;82.10;;;;;;6273434;22;45347;-69
2022/11/07 06:33:07;;;;;;;1.55;0.45;;;19.80;81.90;;;;;;6272848;22;47476;-69
2022/11/07 06:35:36;;;;;;;1.30;0.50;;;19.80;82.20;;;;;;6273051;22;45373;-69
2022/11/07 06:38:03;;;;;;;1.17;0.40;;;19.80;82.30;;;;;;6273425;22;45315;-69
2022/11/07 06:40:30;;;;;;;2.90;0.40;;;19.80;82.60;;;;;;6273933;22;45402;-69
2022/11/07 06:43:05;;;;;;;0.98;0.40;;;19.80;82.80;;;;;;6273089;22;46363;-69
2022/11/07 06:45:32;;;;;;;1.73;0.40;;;19.80;82.60;;;;;;6273455;22;45216;-69
2022/11/07 06:47:59;;;;;;;1.45;0.50;;;19.80;82.60;;;;;;6273717;22;45234;-70
2022/11/07 06:50:25;;;;;;;1.15;0.57;;;19.80;82.50;;;;;;6273864;22;45551;-69
2022/11/07 06:52:53;;;;;;;1.48;0.60;;;19.80;82.40;;;;;;6273181;22;46632;-69
2022/11/07 06:55:20;;;;;;;0.70;0.40;;;19.90;82.70;;;;;;6274010;22;45428;-69
2022/11/07 06:57:47;;;;;;;1.02;0.60;;;19.80;82.70;;;;;;6273457;22;45259;-70
2022/11/07 07:00:15;;;;;;;3.22;0.47;;;19.80;82.60;;;;;;6274177;22;45301;-70
2022/11/07 07:02:42;;;;;;;1.60;0.47;;;19.80;82.50;;;;;;6271011;22;48061;-69
2022/11/07 07:05:09;;;;;;;2.05;0.65;;;19.80;82.50;;;;;;6272620;22;45310;-70
2022/11/07 07:07:36;;;;;;;1.38;0.52;;;19.80;82.50;;;;;;6274240;22;45428;-69
2022/11/07 07:10:05;;;;;;;1.88;0.50;;;19.80;82.10;;;;;;6273707;22;45373;-69
2022/11/07 07:12:32;;;;;;;2.00;0.70;;;19.80;82.20;;;;;;6272450;22;45379;-70
2022/11/07 07:14:59;;;;;;;0.98;0.40;;;19.80;82.10;;;;;;6273508;22;45341;-69
2022/11/07 07:17:27;;;;;;;1.65;0.57;;;19.80;81.90;;;;;;6272255;22;45366;-69
2022/11/07 07:19:53;;;;;;;0.73;0.40;;;19.80;81.80;;;;;;6272347;22;45276;-70
2022/11/07 07:22:20;;;;;;;1.20;0.43;;;19.80;82.00;;;;;;6271306;22;48082;-69
2022/11/07 07:24:50;;;;;;;1.95;0.60;;;19.80;82.10;;;;;;6272740;22;45389;-70
2022/11/07 07:27:19;;;;;;;1.52;0.68;;;19.80;82.10;;;;;;6271830;22;45355;-69
2022/11/07 07:29:46;;;;;;;1.80;0.45;;;19.80;81.90;;;;;;6271719;22;45485;-69
2022/11/07 07:32:12;;;;;;;3.53;0.60;;;19.80;82.10;;;;;;6272116;22;45528;-69
2022/11/07 07:34:39;;;;;;;0.57;0.50;;;19.80;82.30;;;;;;6271795;22;45217;-69
2022/11/07 07:37:06;;;;;;;1.23;0.50;;;19.80;82.50;;;;;;6273705;22;45390;-69
2022/11/07 07:39:33;;;;;;;2.30;0.57;;;19.80;82.40;;;;;;6272413;22;45295;-70
2022/11/07 07:41:59;;;;;;;1.85;0.50;;;19.80;82.40;;;;;;6271556;22;47471;-69
2022/11/07 07:44:28;;;;;;;1.80;0.40;;;19.80;82.40;;;;;;6273599;22;45232;-69
2022/11/07 07:46:54;;;;;;;1.25;0.55;;;19.80;82.40;;;;;;6272237;22;45315;-69
2022/11/07 07:49:21;;;;;;;1.55;0.50;;;19.80;82.40;;;;;;6274182;22;45398;-69
2022/11/07 07:51:48;;;;;;;1.23;0.47;;;19.80;82.30;;;;;;6273215;22;47304;-68
2022/11/07 07:54:15;;;;;;;1.00;0.38;;;19.90;82.40;;;;;;6272716;22;45216;-69
2022/11/07 07:56:43;;;;;;;1.45;0.20;;;19.90;82.40;;;;;;6246738;22;45295;-69
2022/11/07 07:59:09;;;;;;;1.60;0.40;;;19.90;82.40;;;;;;6273776;22;45319;-69
2022/11/07 08:01:38;;;;;;;2.25;0.50;;;19.90;82.20;;;;;;6273517;22;47008;-69
2022/11/07 08:04:05;;;;;;;0.65;0.40;;;19.80;82.10;;;;;;6270816;22;45552;-69
2022/11/07 08:06:33;;;;;;;1.55;0.70;;;19.90;82.10;;;;;;6272862;22;45311;-69
2022/11/07 08:09:00;;;;;;;2.47;0.57;;;19.90;82.10;;;;;;6273726;22;45435;-69
2022/11/07 08:11:28;;;;;;;0.70;0.50;;;19.90;82.10;;;;;;6272932;22;47659;-69
2022/11/07 08:13:55;;;;;;;0.98;0.43;;;19.80;81.90;;;;;;6271232;22;45356;-69
2022/11/07 08:16:22;;;;;;;1.65;0.50;;;19.80;81.90;;;;;;6273264;22;45314;-68
2022/11/07 08:18:50;;;;;;;0.80;0.35;;;19.90;82.10;;;;;;6272975;22;45201;-69
2022/11/07 08:21:17;;;;;;;2.03;0.55;;;19.80;81.80;;;;;;6271324;22;47351;-69
2022/11/07 08:23:44;;;;;;;0.90;0.35;;;19.80;81.80;;;;;;6271932;22;45354;-69
2022/11/07 08:26:10;;;;;;;1.05;0.50;;;19.80;81.90;;;;;;6273722;22;45383;-69
2022/11/07 08:28:37;;;;;;;0.55;0.40;;;19.90;81.70;;;;;;6272912;22;45392;-69
2022/11/07 08:31:07;;;;;;;0.20;0.20;;;19.90;81.90;;;;;;6272351;22;46351;-69
2022/11/07 08:33:34;;;;;;;2.35;0.68;;;19.80;82.00;;;;;;6271566;22;45683;-69
2022/11/07 08:36:04;;;;;;;1.77;0.52;;;19.90;82.10;;;;;;6273072;22;45511;-69
2022/11/07 08:38:32;;;;;;;1.15;0.47;;;19.90;82.10;;;;;;6273653;22;45430;-69
2022/11/07 08:40:59;;;;;;;1.20;0.50;;;19.90;82.10;;;;;;6271965;22;46249;-69
2022/11/07 08:43:26;;;;;;;2.03;0.68;;;19.90;82.10;;;;;;6271174;22;45227;-70
2022/11/07 08:45:54;;;;;;;1.77;0.40;;;19.90;82.10;;;;;;6273060;22;45262;-70
2022/11/07 08:48:22;;;;;;;1.20;0.35;;;19.90;82.50;;;;;;6272370;22;45263;-70
2022/11/07 08:50:52;;;;;;;0.80;0.40;;;19.90;82.40;;;;;;6271906;22;45351;-69
2022/11/07 08:53:21;;;;;;;0.95;0.35;;;19.90;82.30;;;;;;6272821;22;45419;-69
2022/11/07 08:55:47;;;;;;;2.67;0.50;;;19.90;82.40;;;;;;6272316;22;45199;-70
2022/11/07 08:58:14;;;;;;;1.85;0.32;;;19.90;82.20;;;;;;6272289;22;45355;-69
2022/11/07 09:00:42;;;;;;;2.35;0.60;;;19.90;82.20;;;;;;6271316;22;46610;-69
2022/11/07 09:03:10;;;;;;;1.95;0.47;;;19.80;82.10;;;;;;6270315;22;45348;-69
2022/11/07 09:05:38;;;;;;;0.95;0.45;;;19.80;82.20;;;;;;6271021;22;45225;-69
2022/11/07 09:08:05;;;;;;;0.57;0.40;;;19.80;82.20;;;;;;6271096;22;45293;-70
2022/11/07 09:10:33;;;;;;;1.73;0.60;;;19.80;82.10;;;;;;6270199;22;45184;-70
2022/11/07 09:13:00;;;;;;;1.42;0.60;;;19.80;82.20;;;;;;6270380;22;45330;-70
2022/11/07 09:15:27;;;;;;;1.65;0.40;;;19.80;82.20;;;;;;6271275;22;45327;-69
2022/11/07 09:17:53;;;;;;;0.90;0.50;;;19.80;82.20;;;;;;6272855;22;45352;-69
2022/11/07 09:20:20;;;;;;;1.50;0.63;;;19.80;82.20;;;;;;6271403;22;45423;-69
2022/11/07 09:22:47;;;;;;;1.92;0.55;;;19.80;82.20;;;;;;6271750;22;45261;-70
2022/11/07 09:25:14;;;;;;;0.30;0.30;;;19.80;82.30;;;;;;6271703;22;45284;-70
2022/11/07 09:27:42;;;;;;;0.88;0.40;;;19.80;82.30;;;;;;6274700;22;45353;-70
2022/11/07 09:30:10;;;;;;;1.00;0.30;;;19.80;82.20;;;;;;6273111;22;46295;-69
2022/11/07 09:32:37;;;;;;;2.22;0.50;;;19.90;82.40;;;;;;6273084;22;45271;-69
2022/11/07 09:35:04;;;;;;;0.75;0.50;;;19.80;82.40;;;;;;6273585;22;45240;-69
2022/11/07 09:37:31;;;;;;;0.65;0.38;;;19.90;82.60;;;;;;6272319;22;45255;-70
2022/11/07 09:39:58;;;;;;;2.90;0.63;;;19.90;82.60;;;;;;6273205;22;46224;-69
2022/11/07 09:42:36;;;;;;;2.15;0.50;;;19.90;82.60;;;;;;6269529;22;45266;-69
2022/11/07 09:45:05;;;;;;;0.80;0.50;;;19.90;82.60;;;;;;6273743;22;45359;-70
2022/11/07 09:47:37;;;;;;;0.77;0.30;;;19.90;82.70;;;;;;6273641;22;45362;-69
2022/11/07 09:50:10;;;;;;;0.32;0.30;;;19.90;82.60;;;;;;6273031;22;46307;-69
2022/11/07 09:52:42;;;;;;;1.45;0.40;;;19.90;82.70;;;;;;6272173;22;45308;-69
2022/11/07 09:55:16;;;;;;;1.48;0.52;;;19.90;82.70;;;;;;6272112;22;45222;-69
2022/11/07 09:57:43;;;;;;;1.02;0.32;;;19.90;82.70;;;;;;6273597;22;45275;-70
2022/11/07 10:00:16;;;;;;;0.98;0.38;;;19.90;82.70;;;;;;6273343;22;45213;-69
2022/11/07 10:02:46;;;;;;;1.70;0.50;;;19.90;82.80;;;;;;6270927;22;45434;-68
2022/11/07 10:05:15;;;;;;;0.90;0.50;;;19.90;82.70;;;;;;6273523;22;45271;-69
2022/11/07 10:07:50;;;;;;;2.05;0.70;;;19.90;83.10;;;;;;6273647;22;45248;-69
2022/11/07 10:10:27;;;;;;;3.53;0.77;;;19.90;83.00;;;;;;6273206;22;47020;-69
2022/11/07 10:13:38;;;;;;;1.65;0.40;;;19.90;82.60;;;;;;6272780;22;45375;-69
2022/11/07 10:16:12;;;;;;;2.00;0.52;;;19.90;82.70;;;;;;6273291;22;45388;-69
2022/11/07 10:18:53;;;;;;;3.90;0.70;;;19.90;82.70;;;;;;6273795;22;45510;-69
2022/11/07 10:21:29;;;;;;;1.20;0.43;;;19.90;82.70;;;;;;6273125;22;46316;-69
2022/11/07 10:24:11;;;;;;;1.00;0.50;;;20.00;82.90;;;;;;6271595;22;45317;-69
2022/11/07 10:26:44;;;;;;;1.58;0.60;;;19.90;82.80;;;;;;6273693;22;45342;-69
2022/11/07 10:29:14;;;;;;;2.63;0.40;;;19.90;82.90;;;;;;6274280;22;45285;-69
2022/11/07 10:31:47;;;;;;;2.72;0.60;;;20.00;82.90;;;;;;6272377;22;48330;-69
2022/11/07 10:34:21;;;;;;;0.70;0.50;;;20.00;83.00;;;;;;6272083;22;45729;-70
2022/11/07 10:36:47;;;;;;;1.23;0.50;;;20.00;83.00;;;;;;6271812;22;45345;-70
2022/11/07 10:39:16;;;;;;;1.33;0.60;;;20.00;83.10;;;;;;6273846;22;45479;-69
2022/11/07 10:41:51;;;;;;;1.55;0.43;;;20.00;83.10;;;;;;6272110;22;48015;-69
2022/11/07 10:44:23;;;;;;;0.60;0.43;;;20.00;83.00;;;;;;6272726;22;45301;-69
2022/11/07 10:46:51;;;;;;;1.90;0.60;;;20.00;83.00;;;;;;6271511;22;45240;-69
2022/11/07 10:49:21;;;;;;;1.90;0.77;;;20.00;83.10;;;;;;6272362;22;45496;-69
2022/11/07 10:51:48;;;;;;;0.77;0.47;;;20.00;83.10;;;;;;6272963;22;45231;-69
2022/11/07 10:54:26;;;;;;;1.40;0.40;;;20.00;83.10;;;;;;6271350;22;45752;-69
2022/11/07 10:57:00;;;;;;;1.38;0.50;;;20.00;83.10;;;;;;6273652;22;45459;-69
2022/11/07 10:59:28;;;;;;;1.58;0.60;;;20.00;83.10;;;;;;6273782;22;45448;-70
2022/11/07 11:01:59;;;;;;;3.50;0.68;;;19.90;82.90;;;;;;6272956;22;45324;-69
2022/11/07 11:04:28;;;;;;;0.55;0.35;;;20.00;83.10;;;;;;6272906;22;45178;-69
2022/11/07 11:07:01;;;;;;;0.98;0.50;;;20.00;83.10;;;;;;6272802;22;45470;-69
2022/11/07 11:09:32;;;;;;;2.03;0.55;;;20.00;83.10;;;;;;6272227;22;45287;-69
2022/11/07 11:12:03;;;;;;;1.88;0.52;;;20.00;83.20;;;;;;6270903;22;46517;-69
2022/11/07 11:14:30;;;;;;;1.30;0.43;;;20.00;83.20;;;;;;6271304;22;45425;-69
2022/11/07 11:16:58;;;;;;;1.90;0.65;;;20.00;83.10;;;;;;6272969;22;45304;-69
2022/11/07 11:19:28;;;;;;;2.10;0.45;;;20.00;83.10;;;;;;6270024;22;45343;-69
2022/11/07 11:21:57;;;;;;;1.70;0.57;;;20.00;83.20;;;;;;6271051;22;47497;-69
2022/11/07 11:24:34;;;;;;;1.20;0.60;;;20.00;83.30;;;;;;6268741;22;45288;-69
2022/11/07 11:27:10;;;;;;;1.75;0.52;;;20.00;83.40;;;;;;6270967;22;45277;-69
2022/11/07 11:29:44;;;;;;;2.15;0.55;;;20.00;83.50;;;;;;6271921;22;45270;-70
2022/11/07 11:32:20;;;;;;;1.67;0.40;;;20.00;83.50;;;;;;6272802;22;47269;-69
2022/11/07 11:34:55;;;;;;;1.33;0.60;;;20.00;83.40;;;;;;6273467;22;45230;-69
2022/11/07 11:37:26;;;;;;;1.85;0.55;;;20.00;83.50;;;;;;6272749;22;45272;-70
2022/11/07 11:40:11;;;;;;;0.98;0.45;;;20.00;83.30;;;;;;6273851;22;45149;-69
2022/11/07 11:42:47;;;;;;;1.27;0.60;;;20.00;83.30;;;;;;6271872;22;46461;-70
2022/11/07 11:45:17;;;;;;;1.63;0.50;;;20.00;83.40;;;;;;6270469;22;45314;-69
2022/11/07 11:47:53;;;;;;;2.75;0.50;;;20.00;83.30;;;;;;6273018;22;45492;-69
2022/11/07 11:50:27;;;;;;;0.85;0.32;;;20.00;83.30;;;;;;6272844;22;45236;-69
2022/11/07 11:52:54;;;;;;;1.23;0.30;;;20.00;83.30;;;;;;6272821;22;48104;-70
2022/11/07 11:55:28;;;;;;;2.58;0.80;;;20.00;83.20;;;;;;6272106;22;45343;-70
2022/11/07 11:58:05;;;;;;;1.60;0.50;;;20.00;83.10;;;;;;6272943;22;45412;-69
2022/11/07 12:00:37;;;;;;;1.05;0.30;;;20.00;83.30;;;;;;6269751;22;45340;-69
2022/11/07 12:03:31;;;;;;;0.77;0.35;;;20.00;83.30;;;;;;6266433;22;47200;-69
2022/11/07 12:06:14;;;;;;;2.25;0.60;;;19.90;83.30;;;;;;6270577;22;45769;-70
2022/11/07 12:09:04;;;;;;;0.65;0.40;;;20.00;83.30;;;;;;6273344;22;45222;-69
2022/11/07 12:11:37;;;;;;;0.70;0.40;;;20.00;83.40;;;;;;6271650;22;45302;-69
2022/11/07 12:14:31;;;;;;;1.40;0.40;;;20.00;83.40;;;;;;6271694;22;45428;-70
2022/11/07 12:17:05;;;;;;;1.55;0.30;;;20.00;83.40;;;;;;6272500;22;45512;-66
2022/11/07 12:19:41;;;;;;;1.38;0.50;;;19.90;83.20;;;;;;6270723;22;45223;-69
2022/11/07 12:22:19;;;;;;;2.95;0.40;;;20.00;83.20;;;;;;6269768;22;45276;-69
2022/11/07 12:24:52;;;;;;;3.53;0.73;;;20.00;84.50;;;;;;6268425;22;47216;-69
2022/11/07 12:27:26;;;;;;;4.35;0.68;;;20.00;83.40;;;;;;6269106;22;45240;-68
2022/11/07 12:30:05;;;;;;;4.07;0.50;;;19.90;83.30;;;;;;6271814;22;45397;-69
2022/11/07 12:32:42;;;;;;;0.47;0.28;;;19.90;83.30;;;;;;6272652;22;45343;-69
2022/11/07 12:35:23;;;;;;;0.70;0.32;;;19.90;83.30;;;;;;6270314;22;47357;-69
2022/11/07 12:38:10;;;;;;;1.23;0.32;;;19.90;83.40;;;;;;6271760;22;46148;-69
2022/11/07 12:40:50;;;;;;;2.70;0.90;;;19.90;83.50;;;;;;6270915;22;45244;-69
2022/11/07 12:43:35;;;;;;;2.20;0.47;;;20.00;83.50;;;;;;6268823;22;45331;-69
2022/11/07 12:46:13;;;;;;;4.53;0.50;;;20.00;83.50;;;;;;6269720;22;46375;-69
2022/11/07 12:49:04;;;;;;;1.05;0.40;;;20.00;83.90;;;;;;6269818;22;45271;-69
2022/11/07 12:51:45;;;;;;;2.20;0.50;;;20.00;83.80;;;;;;6270976;22;45522;-69
2022/11/07 12:54:33;;;;;;;1.38;0.47;;;20.00;83.70;;;;;;6270485;22;45338;-69
2022/11/07 12:57:04;;;;;;;1.98;0.47;;;20.00;83.60;;;;;;6273471;22;46536;-69
2022/11/07 12:59:33;;;;;;;2.80;0.20;;;20.00;83.70;;;;;;6273314;22;45304;-70
2022/11/07 13:02:08;;;;;;;1.63;0.50;;;20.00;83.60;;;;;;6273829;22;45389;-69
2022/11/07 13:04:41;;;;;;;0.70;0.30;;;20.00;83.60;;;;;;6273795;22;45371;-69
2022/11/07 13:07:20;;;;;;;1.00;0.40;;;20.00;83.50;;;;;;6270822;22;47461;-69
2022/11/07 13:09:55;;;;;;;0.85;0.30;;;20.00;83.30;;;;;;6273500;22;45324;-69
2022/11/07 13:12:28;;;;;;;0.30;0.20;;;20.00;83.50;;;;;;6268998;22;45290;-68